KAFO/AFO METAR and TAF weather

Enter ICAO airport designator
Station Type Date Time Source
KAFO METAR 2018/04/23 11:15 UTC NOAA

KAFO 231115Z AUTO 02006KT 3SM RA SCT013 BKN020 OVC027 01/00 A3015 RMK AO2


Station Type Date Time Source
KAFO Decoded METAR 2018/04/23 11:15 UTC NOAA

Station name not available
Apr 23, 2018 - 07:15 AM EDT / 2018.04.23 1115 UTC
Wind: from the NNE (020 degrees) at 7 MPH (6 KT):0
Visibility: 3 mile(s):0
Sky conditions: overcast
Weather: rain
Temperature: 33 F (1 C)
Windchill: 26 F (-3 C):1
Dew Point: 32 F (0 C)
Relative Humidity: 93%
Pressure (altimeter): 30.15 in. Hg (1020 hPa)
ob: KAFO 231115Z AUTO 02006KT 3SM RA SCT013 BKN020 OVC027 01/00 A3015 RMK AO2
cycle: 11

Station Type Date Time Source
KAFO TAF UTC NOAA

Error!


Example: see airport list